Time;durP1;ratioP1;P1;durP2;ratioP2;P2;SDS_P1;SDS_P2;PMS_P1;PMS_P2;Temp;Humidity;BMP_temperature;BMP_pressure;BME280_temperature;BME280_humidity;BME280_pressure;Samples;Min_cycle;Max_cycle;Signal;HPM_P1;HPM_P2
2022/05/09 00:00:29;;;;;;;14.80;9.37;;;14.00;86.50;;;;;;5052184;28;20531;-76
2022/05/09 00:02:55;;;;;;;13.30;10.10;;;14.00;86.80;;;;;;5050798;28;20438;-75
2022/05/09 00:05:24;;;;;;;16.23;9.60;;;13.90;86.80;;;;;;5052161;28;20445;-76
2022/05/09 00:07:50;;;;;;;16.37;9.87;;;13.90;87.10;;;;;;5052074;28;20952;-76
2022/05/09 00:10:19;;;;;;;15.07;9.37;;;13.90;87.40;;;;;;5052150;28;20447;-77
2022/05/09 00:12:45;;;;;;;14.33;9.43;;;13.80;87.40;;;;;;5051828;28;20489;-76
2022/05/09 00:15:12;;;;;;;16.40;9.20;;;13.80;87.60;;;;;;5051028;28;20455;-77
2022/05/09 00:17:38;;;;;;;13.90;10.00;;;13.70;88.00;;;;;;5050518;28;20427;-75
2022/05/09 00:20:06;;;;;;;17.23;9.20;;;13.70;88.10;;;;;;5050768;28;20465;-75
2022/05/09 00:22:42;;;;;;;14.87;9.97;;;13.70;88.30;;;;;;5050402;28;20187;-74
2022/05/09 00:25:08;;;;;;;17.93;10.97;;;13.60;88.40;;;;;;5050248;28;20406;-76
2022/05/09 00:27:33;;;;;;;15.27;10.13;;;13.60;88.70;;;;;;5048967;28;20561;-76
2022/05/09 00:29:59;;;;;;;17.93;10.10;;;13.50;89.00;;;;;;5050009;28;20554;-76
2022/05/09 00:32:25;;;;;;;17.20;11.37;;;13.50;89.20;;;;;;5048898;28;20185;-76
2022/05/09 00:34:50;;;;;;;16.90;10.83;;;13.50;89.20;;;;;;5050684;28;20699;-76
2022/05/09 00:37:16;;;;;;;17.00;10.77;;;13.40;89.50;;;;;;5049872;28;20666;-77
2022/05/09 00:39:42;;;;;;;19.20;11.47;;;13.40;89.60;;;;;;5049880;28;20307;-76
2022/05/09 00:42:13;;;;;;;17.37;11.33;;;13.30;89.50;;;;;;5050464;28;20643;-76
2022/05/09 00:44:39;;;;;;;17.53;11.43;;;13.30;89.70;;;;;;5050152;28;20637;-77
2022/05/09 00:47:06;;;;;;;15.30;10.63;;;13.10;89.90;;;;;;5049757;28;20909;-75
2022/05/09 00:49:45;;;;;;;17.83;10.80;;;13.10;90.30;;;;;;5050065;28;20791;-76
2022/05/09 00:52:20;;;;;;;17.00;11.37;;;13.10;90.50;;;;;;5050138;28;20419;-77
2022/05/09 00:54:49;;;;;;;17.70;10.93;;;13.10;90.40;;;;;;5048715;28;20438;-78
2022/05/09 00:57:23;;;;;;;16.37;10.37;;;13.10;90.50;;;;;;5048675;28;20434;-76
2022/05/09 00:59:51;;;;;;;19.20;11.47;;;13.10;90.50;;;;;;5052920;28;20973;-76
2022/05/09 01:02:19;;;;;;;16.50;10.60;;;13.10;90.50;;;;;;5051851;28;20419;-77
2022/05/09 01:04:57;;;;;;;18.07;10.90;;;13.10;90.70;;;;;;5045787;28;20423;-75
2022/05/09 01:07:24;;;;;;;15.77;10.13;;;13.10;90.70;;;;;;5053275;28;20427;-75
2022/05/09 01:09:50;;;;;;;21.60;11.70;;;13.20;90.50;;;;;;5051281;28;21014;-76
2022/05/09 01:12:21;;;;;;;18.73;11.73;;;13.10;90.50;;;;;;5049893;28;20469;-77
2022/05/09 01:14:48;;;;;;;17.53;10.67;;;13.10;90.60;;;;;;5050224;28;20469;-77
2022/05/09 01:17:15;;;;;;;18.43;11.57;;;13.10;90.60;;;;;;5048930;28;21277;-76
2022/05/09 01:19:44;;;;;;;16.27;10.70;;;13.10;90.70;;;;;;5048624;28;20816;-76
2022/05/09 01:22:25;;;;;;;17.53;11.10;;;13.10;90.60;;;;;;5049503;28;20845;-76
2022/05/09 01:24:53;;;;;;;20.33;11.67;;;13.10;90.70;;;;;;5050239;28;20502;-76
2022/05/09 01:27:19;;;;;;;20.63;11.60;;;13.10;90.70;;;;;;5044190;28;20415;-75
2022/05/09 01:29:49;;;;;;;16.63;11.17;;;13.00;90.80;;;;;;5049859;28;20427;-76
2022/05/09 01:32:19;;;;;;;16.77;11.27;;;13.00;90.90;;;;;;5050074;28;21022;-75
2022/05/09 01:34:51;;;;;;;22.90;13.23;;;13.00;91.00;;;;;;5050490;28;20980;-74
2022/05/09 01:37:20;;;;;;;20.70;11.63;;;12.90;91.00;;;;;;5050146;28;20455;-74
2022/05/09 01:39:45;;;;;;;19.20;12.33;;;12.90;91.20;;;;;;5053718;28;20526;-76
2022/05/09 01:42:11;;;;;;;19.27;11.40;;;12.90;91.20;;;;;;5054138;28;20522;-75
2022/05/09 01:44:37;;;;;;;16.93;11.00;;;12.90;91.20;;;;;;5055213;28;20184;-75
2022/05/09 01:49:49;;;;;;;18.33;11.37;;;12.90;91.30;;;;;;5055802;28;20449;-76
2022/05/09 01:52:15;;;;;;;18.00;11.20;;;12.80;91.40;;;;;;5055330;28;21093;-76
2022/05/09 01:54:43;;;;;;;19.00;12.57;;;12.80;91.50;;;;;;5056324;28;20447;-77
2022/05/09 01:57:10;;;;;;;17.83;11.57;;;12.70;91.60;;;;;;5055945;28;20418;-75
2022/05/09 01:59:38;;;;;;;22.53;12.10;;;12.60;91.60;;;;;;5057009;28;20461;-75
2022/05/09 02:02:09;;;;;;;22.53;13.53;;;12.60;91.90;;;;;;5057373;28;20438;-76
2022/05/09 02:04:38;;;;;;;20.83;12.03;;;12.60;91.80;;;;;;5049551;28;20412;-75
2022/05/09 02:07:05;;;;;;;16.17;11.63;;;12.50;91.90;;;;;;5053187;28;20411;-77
2022/05/09 02:09:31;;;;;;;18.73;10.80;;;12.50;91.80;;;;;;5052630;28;20508;-76
2022/05/09 02:11:56;;;;;;;17.73;11.80;;;12.30;91.90;;;;;;5053211;28;20486;-75
2022/05/09 02:14:22;;;;;;;17.13;11.50;;;12.30;91.80;;;;;;5053278;28;20192;-76
2022/05/09 02:16:48;;;;;;;17.30;12.50;;;12.30;91.80;;;;;;5053442;28;20185;-75
2022/05/09 02:19:14;;;;;;;18.07;11.40;;;12.30;91.90;;;;;;5052925;28;20319;-76
2022/05/09 02:21:39;;;;;;;16.23;11.10;;;12.30;91.80;;;;;;5053003;28;20198;-76
2022/05/09 02:24:05;;;;;;;16.80;11.80;;;12.30;91.90;;;;;;5055398;28;20173;-76
2022/05/09 02:26:31;;;;;;;19.53;12.60;;;12.20;91.90;;;;;;5054523;28;20181;-76
2022/05/09 02:28:57;;;;;;;20.33;11.27;;;12.20;92.00;;;;;;5053408;28;20426;-75
2022/05/09 02:31:23;;;;;;;20.23;12.50;;;12.10;92.20;;;;;;5054800;28;20468;-76
2022/05/09 02:33:49;;;;;;;20.47;11.37;;;12.00;92.40;;;;;;5055381;28;20561;-76
2022/05/09 02:36:15;;;;;;;21.27;12.10;;;12.10;92.60;;;;;;5055614;28;20423;-75
2022/05/09 02:38:41;;;;;;;19.73;12.30;;;12.10;92.50;;;;;;5056589;28;20468;-75
2022/05/09 02:41:07;;;;;;;22.03;13.03;;;12.20;92.70;;;;;;5058344;28;20266;-77
2022/05/09 02:43:34;;;;;;;21.03;11.80;;;12.20;92.70;;;;;;5064147;28;20196;-76
2022/05/09 02:46:03;;;;;;;23.40;12.63;;;12.20;92.70;;;;;;5061513;28;20187;-75
2022/05/09 02:48:35;;;;;;;17.87;12.77;;;12.20;92.50;;;;;;5051717;28;20521;-77
2022/05/09 02:51:01;;;;;;;17.43;11.23;;;12.10;92.40;;;;;;5050118;28;20806;-76
2022/05/09 02:53:27;;;;;;;16.77;11.60;;;12.10;92.60;;;;;;5061179;28;20445;-76
2022/05/09 02:55:53;;;;;;;19.40;12.30;;;12.20;92.70;;;;;;5060964;28;20451;-75
2022/05/09 02:58:19;;;;;;;21.93;11.70;;;12.20;92.60;;;;;;5050868;28;20435;-75
2022/05/09 03:00:45;;;;;;;18.63;12.00;;;12.20;92.50;;;;;;5051915;28;20721;-76
2022/05/09 03:05:54;;;;;;;16.80;12.10;;;12.20;92.30;;;;;;5046468;28;20410;-75
2022/05/09 03:08:20;;;;;;;19.40;12.57;;;12.20;92.30;;;;;;5051467;28;20418;-75
2022/05/09 03:10:46;;;;;;;18.13;13.03;;;12.20;92.50;;;;;;5051639;28;20255;-75
2022/05/09 03:13:13;;;;;;;20.23;11.73;;;12.10;92.60;;;;;;5050414;28;20211;-75
2022/05/09 03:15:42;;;;;;;17.90;11.33;;;12.10;92.70;;;;;;5047943;28;20862;-77
2022/05/09 03:18:08;;;;;;;22.13;12.27;;;12.10;92.70;;;;;;5055191;28;20740;-74
2022/05/09 03:20:36;;;;;;;19.93;12.33;;;12.10;92.70;;;;;;5056614;28;20466;-75
2022/05/09 03:23:04;;;;;;;18.80;12.53;;;12.10;92.80;;;;;;5062634;28;20445;-75
2022/05/09 03:25:31;;;;;;;19.33;12.23;;;12.10;92.80;;;;;;5065297;28;20415;-75
2022/05/09 03:27:57;;;;;;;18.43;11.17;;;12.00;92.80;;;;;;5062975;28;20497;-77
2022/05/09 03:30:24;;;;;;;20.37;12.97;;;12.00;92.80;;;;;;5066515;28;20526;-77
2022/05/09 03:32:52;;;;;;;16.57;11.70;;;11.90;92.80;;;;;;5059993;28;20509;-76
2022/05/09 03:35:18;;;;;;;19.60;12.17;;;12.00;92.70;;;;;;5054924;28;20415;-76
2022/05/09 03:37:44;;;;;;;22.33;11.83;;;12.00;92.60;;;;;;5051208;28;20418;-76
2022/05/09 03:40:10;;;;;;;18.23;11.63;;;12.00;92.70;;;;;;5053185;28;20981;-76
2022/05/09 03:42:36;;;;;;;19.03;12.20;;;11.90;92.80;;;;;;5056343;28;20207;-76
2022/05/09 03:45:03;;;;;;;20.30;12.87;;;11.90;92.70;;;;;;5055251;28;20407;-77
2022/05/09 03:47:29;;;;;;;20.07;12.77;;;11.90;92.80;;;;;;5051268;28;20434;-79
2022/05/09 03:49:57;;;;;;;18.93;12.30;;;11.90;92.90;;;;;;5055675;28;20411;-75
2022/05/09 03:52:25;;;;;;;28.93;13.23;;;11.90;92.90;;;;;;5051307;28;20195;-76
2022/05/09 03:54:51;;;;;;;17.73;11.73;;;11.90;92.80;;;;;;5052851;28;20431;-77
2022/05/09 03:57:17;;;;;;;20.13;12.63;;;11.90;92.70;;;;;;5054040;28;20422;-77
2022/05/09 03:59:43;;;;;;;21.90;12.27;;;11.90;92.50;;;;;;5051074;28;20462;-77
2022/05/09 04:02:10;;;;;;;24.20;13.20;;;11.90;92.50;;;;;;5050855;28;20287;-76
2022/05/09 04:04:36;;;;;;;21.47;12.37;;;11.80;92.50;;;;;;5052114;28;20441;-77
2022/05/09 04:07:01;;;;;;;16.70;11.97;;;11.80;92.50;;;;;;5052397;28;20423;-76
2022/05/09 04:09:27;;;;;;;19.97;11.80;;;11.80;92.60;;;;;;5052093;28;20263;-77
2022/05/09 04:11:53;;;;;;;17.70;11.30;;;11.70;92.60;;;;;;5051697;28;20200;-76
2022/05/09 04:17:03;;;;;;;19.37;12.40;;;11.70;92.90;;;;;;5050540;28;20618;-75
2022/05/09 04:19:30;;;;;;;22.73;13.27;;;11.80;93.00;;;;;;5049948;28;20470;-76
2022/05/09 04:21:57;;;;;;;19.80;12.90;;;11.80;93.00;;;;;;5050313;28;20996;-74
2022/05/09 04:24:22;;;;;;;20.20;12.77;;;11.90;93.00;;;;;;5049523;28;20427;-75
2022/05/09 04:26:48;;;;;;;26.60;14.13;;;11.90;93.00;;;;;;5050015;28;20413;-75
2022/05/09 04:29:14;;;;;;;22.83;12.80;;;11.90;93.20;;;;;;5051333;28;20311;-75
2022/05/09 04:31:40;;;;;;;21.20;13.70;;;11.90;93.20;;;;;;5051221;28;20201;-76
2022/05/09 04:34:06;;;;;;;20.40;13.27;;;11.90;93.40;;;;;;5051275;28;20435;-76
2022/05/09 04:36:32;;;;;;;21.40;13.23;;;11.90;93.50;;;;;;5052540;28;20184;-76
2022/05/09 04:38:59;;;;;;;29.03;14.50;;;11.90;93.60;;;;;;5044571;28;20506;-76
2022/05/09 04:41:25;;;;;;;21.57;13.57;;;12.00;93.60;;;;;;5055192;28;20899;-75
2022/05/09 04:43:51;;;;;;;21.40;14.23;;;12.00;93.50;;;;;;5060986;28;20483;-77
2022/05/09 04:46:17;;;;;;;27.87;14.70;;;12.00;93.50;;;;;;5057429;28;20836;-76
2022/05/09 04:48:44;;;;;;;21.60;14.17;;;12.00;93.40;;;;;;5060993;28;20435;-76
2022/05/09 04:51:11;;;;;;;22.83;14.90;;;12.10;93.40;;;;;;5059954;28;20820;-75
2022/05/09 04:53:38;;;;;;;22.97;13.90;;;12.10;93.40;;;;;;5054332;28;20450;-75
2022/05/09 04:56:04;;;;;;;21.73;13.40;;;12.20;93.10;;;;;;5050246;28;20801;-74
2022/05/09 04:58:31;;;;;;;23.03;13.80;;;12.30;92.90;;;;;;5049312;28;20434;-73
2022/05/09 05:00:57;;;;;;;20.23;13.23;;;12.30;92.90;;;;;;5050787;28;20557;-76
2022/05/09 05:03:23;;;;;;;23.00;14.47;;;12.40;92.90;;;;;;5050287;28;20501;-75
2022/05/09 05:05:52;;;;;;;24.27;14.20;;;12.40;92.70;;;;;;5043864;28;20414;-75
2022/05/09 05:08:18;;;;;;;23.47;14.73;;;12.50;92.60;;;;;;5048996;28;20418;-76
2022/05/09 05:10:44;;;;;;;25.17;15.27;;;12.50;92.40;;;;;;5045244;28;21221;-76
2022/05/09 05:13:12;;;;;;;25.40;14.10;;;12.60;92.20;;;;;;5050613;28;20445;-74
2022/05/09 05:15:38;;;;;;;19.17;13.20;;;12.70;91.70;;;;;;5050961;28;20431;-75
2022/05/09 05:18:04;;;;;;;20.10;12.97;;;12.80;91.20;;;;;;5050985;28;20430;-77
2022/05/09 05:20:31;;;;;;;20.87;14.07;;;12.80;91.00;;;;;;5051119;28;20466;-76
2022/05/09 05:22:56;;;;;;;23.33;14.17;;;12.90;90.80;;;;;;5054033;28;20418;-76
2022/05/09 05:25:28;;;;;;;22.47;13.57;;;12.90;90.60;;;;;;5055842;28;20419;-75
2022/05/09 05:27:54;;;;;;;21.40;13.60;;;13.00;90.20;;;;;;5056088;28;20184;-75
2022/05/09 05:30:21;;;;;;;23.17;13.50;;;13.10;90.00;;;;;;5058799;28;20585;-76
2022/05/09 05:32:48;;;;;;;25.23;15.73;;;13.10;89.70;;;;;;5064144;28;20501;-77
2022/05/09 05:35:17;;;;;;;23.30;13.50;;;13.10;89.90;;;;;;5061710;28;20466;-76
2022/05/09 05:37:43;;;;;;;21.90;13.70;;;13.20;90.00;;;;;;5057008;28;20427;-76
2022/05/09 05:40:10;;;;;;;25.77;13.70;;;13.30;89.90;;;;;;5056258;28;20493;-76
2022/05/09 05:42:41;;;;;;;23.03;14.60;;;13.40;89.60;;;;;;5058903;28;20423;-76
2022/05/09 05:45:08;;;;;;;24.60;14.70;;;13.50;89.90;;;;;;5064657;28;20430;-77
2022/05/09 05:47:34;;;;;;;22.57;14.80;;;13.60;89.90;;;;;;5050695;28;20422;-76
2022/05/09 05:50:00;;;;;;;26.73;15.03;;;13.60;89.70;;;;;;5052154;28;20419;-75
2022/05/09 05:52:25;;;;;;;25.07;15.53;;;13.70;89.70;;;;;;5052450;28;20180;-76
2022/05/09 05:54:51;;;;;;;23.50;15.23;;;13.80;89.30;;;;;;5052412;28;20184;-75
2022/05/09 05:57:27;;;;;;;26.20;16.50;;;13.90;89.20;;;;;;5049179;28;20181;-76
2022/05/09 05:59:58;;;;;;;25.33;15.53;;;14.00;88.90;;;;;;5051351;28;20219;-77
2022/05/09 06:02:26;;;;;;;22.17;14.50;;;14.10;88.60;;;;;;5052905;28;20421;-75
2022/05/09 06:04:52;;;;;;;28.83;16.83;;;14.20;88.00;;;;;;5051192;28;20419;-78
2022/05/09 06:07:19;;;;;;;23.17;14.97;;;14.30;87.40;;;;;;5050630;28;20449;-77
2022/05/09 06:09:46;;;;;;;23.40;14.67;;;14.30;87.40;;;;;;5048886;28;20438;-76
2022/05/09 06:12:14;;;;;;;22.43;15.53;;;14.40;87.40;;;;;;5050629;28;20478;-77
2022/05/09 06:14:41;;;;;;;23.63;14.47;;;14.50;87.10;;;;;;5050917;28;20427;-77
2022/05/09 06:17:08;;;;;;;26.67;15.80;;;14.60;86.90;;;;;;5050960;28;20801;-76
2022/05/09 06:19:34;;;;;;;25.37;15.93;;;14.70;86.50;;;;;;5051396;28;20825;-76
2022/05/09 06:22:01;;;;;;;23.30;16.50;;;14.70;86.20;;;;;;5050691;28;20435;-75
2022/05/09 06:24:27;;;;;;;23.60;15.57;;;14.80;86.00;;;;;;5051569;28;20256;-76
2022/05/09 06:26:53;;;;;;;22.63;14.20;;;14.90;85.60;;;;;;5053389;28;20537;-76
2022/05/09 06:29:19;;;;;;;23.00;15.27;;;14.90;85.50;;;;;;5053233;28;20470;-75
2022/05/09 06:31:45;;;;;;;26.63;15.17;;;14.90;85.00;;;;;;5053615;28;20938;-76
2022/05/09 06:34:13;;;;;;;25.97;16.10;;;15.00;84.90;;;;;;5053288;28;20187;-78
2022/05/09 06:36:41;;;;;;;21.27;13.60;;;15.00;85.00;;;;;;5054317;28;20424;-76
2022/05/09 06:39:09;;;;;;;18.83;14.40;;;15.10;84.70;;;;;;5055380;28;20426;-76
2022/05/09 06:41:35;;;;;;;24.93;15.07;;;15.10;84.40;;;;;;5057653;28;20439;-76
2022/05/09 06:44:01;;;;;;;23.90;14.30;;;15.10;84.40;;;;;;5057476;28;20773;-76
2022/05/09 06:46:26;;;;;;;23.50;15.20;;;15.20;84.10;;;;;;5057656;28;20437;-76
2022/05/09 06:48:52;;;;;;;24.37;15.63;;;15.20;84.10;;;;;;5057888;28;20192;-77
2022/05/09 06:51:19;;;;;;;23.40;15.00;;;15.30;84.00;;;;;;5054915;28;20495;-75
2022/05/09 06:53:45;;;;;;;23.63;14.70;;;15.40;84.00;;;;;;5057434;28;20282;-76
2022/05/09 06:56:12;;;;;;;24.00;15.40;;;15.40;83.70;;;;;;5055831;28;20443;-77
2022/05/09 06:58:38;;;;;;;23.87;14.47;;;15.50;82.80;;;;;;5054918;28;20415;-76
2022/05/09 07:01:14;;;;;;;19.67;13.77;;;15.60;82.40;;;;;;5056287;28;20462;-75
2022/05/09 07:03:41;;;;;;;22.50;14.60;;;15.60;82.20;;;;;;5056849;28;20833;-76
2022/05/09 07:06:06;;;;;;;24.50;14.00;;;15.60;82.50;;;;;;5050153;28;20429;-76
2022/05/09 07:08:33;;;;;;;22.93;13.60;;;15.70;82.40;;;;;;5056387;28;20424;-77
2022/05/09 07:10:59;;;;;;;21.33;14.30;;;15.70;81.90;;;;;;5057137;28;20211;-76
2022/05/09 07:13:25;;;;;;;22.60;15.23;;;15.90;81.40;;;;;;5058236;28;20430;-77
2022/05/09 07:15:50;;;;;;;19.73;14.30;;;15.90;80.90;;;;;;5058292;28;20199;-78
2022/05/09 07:18:16;;;;;;;22.53;14.40;;;15.80;81.20;;;;;;5057137;28;20458;-75
2022/05/09 07:20:42;;;;;;;20.30;14.33;;;15.80;81.40;;;;;;5056628;28;20319;-76
2022/05/09 07:23:10;;;;;;;21.17;13.93;;;15.90;81.10;;;;;;5057917;28;20192;-76
2022/05/09 07:25:38;;;;;;;26.73;12.93;;;16.00;80.90;;;;;;5054492;28;20185;-77
2022/05/09 07:28:04;;;;;;;19.93;12.53;;;16.00;80.50;;;;;;5053642;28;20454;-76
2022/05/09 07:30:31;;;;;;;17.40;12.83;;;16.10;80.00;;;;;;5055219;28;20443;-75
2022/05/09 07:32:57;;;;;;;20.27;12.93;;;16.30;79.60;;;;;;5054766;28;20637;-77
2022/05/09 07:35:24;;;;;;;18.33;12.40;;;16.40;79.30;;;;;;5055707;28;20427;-74
2022/05/09 07:37:50;;;;;;;20.40;13.23;;;16.50;78.70;;;;;;5052571;28;20430;-76
2022/05/09 07:40:18;;;;;;;20.03;12.97;;;16.60;78.70;;;;;;5056192;28;20999;-76
2022/05/09 07:42:45;;;;;;;20.20;12.47;;;16.70;78.60;;;;;;5054747;28;20526;-77
2022/05/09 07:45:14;;;;;;;17.10;12.40;;;16.80;77.70;;;;;;5053911;28;20505;-77
2022/05/09 07:47:40;;;;;;;20.00;12.50;;;16.90;77.40;;;;;;5052287;28;20423;-78
2022/05/09 07:50:08;;;;;;;18.87;12.40;;;17.00;76.80;;;;;;5051954;28;20789;-76
2022/05/09 07:52:33;;;;;;;15.90;11.70;;;17.00;77.30;;;;;;5052310;28;20528;-76
2022/05/09 07:54:59;;;;;;;19.93;12.73;;;17.00;76.50;;;;;;5052897;28;20427;-77
2022/05/09 07:57:25;;;;;;;21.40;12.50;;;17.00;76.50;;;;;;5051780;28;20199;-77
2022/05/09 07:59:51;;;;;;;17.33;12.00;;;17.00;76.50;;;;;;5052315;28;20232;-77
2022/05/09 08:02:17;;;;;;;18.00;12.80;;;17.10;76.40;;;;;;5052654;28;20537;-77
2022/05/09 08:04:42;;;;;;;15.27;11.80;;;17.20;76.10;;;;;;5045687;28;21349;-77
2022/05/09 08:07:08;;;;;;;18.13;11.47;;;17.20;76.10;;;;;;5050738;28;20647;-76
2022/05/09 08:09:34;;;;;;;16.60;11.87;;;17.30;75.80;;;;;;5052276;28;20677;-76
2022/05/09 08:12:00;;;;;;;22.53;12.23;;;17.30;75.70;;;;;;5054274;28;20277;-77
2022/05/09 08:14:27;;;;;;;19.87;11.53;;;17.40;75.40;;;;;;5052900;28;20189;-76
2022/05/09 08:16:53;;;;;;;16.23;12.00;;;17.50;75.20;;;;;;5052848;28;20855;-75
2022/05/09 08:19:19;;;;;;;18.70;12.80;;;17.60;74.90;;;;;;5054764;28;20426;-75
2022/05/09 08:21:50;;;;;;;20.57;12.40;;;17.60;74.80;;;;;;5055196;28;20454;-76
2022/05/09 08:24:17;;;;;;;17.33;12.33;;;17.60;74.90;;;;;;5058289;28;20187;-77
2022/05/09 08:26:43;;;;;;;19.33;12.40;;;17.70;74.50;;;;;;5056964;28;20423;-76
2022/05/09 08:29:09;;;;;;;14.70;12.20;;;17.80;74.30;;;;;;5056486;28;20430;-76
2022/05/09 08:31:35;;;;;;;16.03;11.17;;;17.90;74.00;;;;;;5058611;28;20443;-77
2022/05/09 08:34:01;;;;;;;16.47;10.70;;;18.00;73.70;;;;;;5057699;28;20447;-77
2022/05/09 08:39:11;;;;;;;14.50;10.83;;;18.20;73.50;;;;;;5053137;28;20416;-78
2022/05/09 08:41:49;;;;;;;17.60;11.60;;;18.40;71.70;;;;;;5053543;28;20449;-76
2022/05/09 08:44:27;;;;;;;14.37;10.97;;;18.40;71.60;;;;;;5054159;28;20423;-77
2022/05/09 08:47:29;;;;;;;15.00;11.70;;;18.40;71.60;;;;;;5055929;28;20418;-76
2022/05/09 08:50:07;;;;;;;17.20;12.13;;;18.50;71.30;;;;;;5056508;28;20476;-77
2022/05/09 08:52:49;;;;;;;14.60;10.60;;;18.50;70.80;;;;;;5061994;28;20411;-77
2022/05/09 08:55:19;;;;;;;16.27;11.40;;;18.50;71.30;;;;;;5062073;28;20509;-77
2022/05/09 08:57:57;;;;;;;23.30;12.13;;;18.60;70.50;;;;;;5062276;28;20969;-76
2022/05/09 09:00:29;;;;;;;16.40;11.20;;;18.70;71.00;;;;;;5062364;28;20513;-76
2022/05/09 09:03:14;;;;;;;14.73;10.70;;;18.80;70.10;;;;;;5061102;28;20493;-75
2022/05/09 09:05:44;;;;;;;15.73;11.00;;;18.90;69.50;;;;;;5054036;28;20513;-77
2022/05/09 09:08:13;;;;;;;14.97;11.13;;;19.10;69.50;;;;;;5053454;28;20415;-75
2022/05/09 09:10:47;;;;;;;11.90;10.00;;;19.20;69.40;;;;;;5054345;28;20443;-76
2022/05/09 09:13:41;;;;;;;15.33;10.93;;;19.30;69.20;;;;;;5053487;28;20491;-77
2022/05/09 09:16:19;;;;;;;14.90;10.27;;;19.40;68.60;;;;;;5048692;28;20445;-77
2022/05/09 09:19:22;;;;;;;13.90;9.80;;;19.40;68.50;;;;;;5054498;28;20475;-76
2022/05/09 09:21:51;;;;;;;19.17;10.77;;;19.50;68.50;;;;;;5056407;28;20439;-79
2022/05/09 09:24:32;;;;;;;20.20;12.63;;;19.50;68.50;;;;;;5058758;28;20417;-77
2022/05/09 09:27:06;;;;;;;15.53;10.90;;;19.50;68.30;;;;;;5057258;28;21299;-76
2022/05/09 09:29:36;;;;;;;21.77;10.60;;;19.40;69.10;;;;;;5060745;28;20479;-76
2022/05/09 09:32:18;;;;;;;17.50;10.83;;;19.50;69.10;;;;;;5054335;28;20439;-77
2022/05/09 09:35:03;;;;;;;14.23;10.57;;;19.60;68.30;;;;;;5052705;28;20949;-77
2022/05/09 09:37:35;;;;;;;15.43;11.43;;;19.70;68.00;;;;;;5052593;28;20423;-77
2022/05/09 09:40:01;;;;;;;13.03;10.20;;;19.80;67.90;;;;;;5051194;28;20980;-76
2022/05/09 09:42:27;;;;;;;15.27;10.37;;;19.70;67.90;;;;;;5052157;28;20426;-76
2022/05/09 09:44:54;;;;;;;14.20;10.10;;;19.80;68.00;;;;;;5051814;28;20415;-78
2022/05/09 09:47:20;;;;;;;13.40;10.00;;;19.90;67.20;;;;;;5053614;28;20261;-77
2022/05/09 09:50:12;;;;;;;15.43;11.07;;;20.00;67.60;;;;;;5052400;28;20514;-77
2022/05/09 09:52:49;;;;;;;14.37;9.93;;;20.20;67.20;;;;;;5051483;28;20188;-77
2022/05/09 09:55:29;;;;;;;17.07;10.13;;;20.40;66.10;;;;;;5053372;28;20423;-77
2022/05/09 09:57:57;;;;;;;12.57;10.00;;;20.60;66.00;;;;;;5050779;28;20428;-77
2022/05/09 10:00:35;;;;;;;13.30;10.03;;;20.80;65.40;;;;;;5052811;28;20496;-77
2022/05/09 10:03:27;;;;;;;14.37;10.27;;;21.10;63.80;;;;;;5055905;28;20446;-78
2022/05/09 10:05:54;;;;;;;14.43;9.83;;;21.20;63.50;;;;;;5054452;28;21003;-78
2022/05/09 10:08:32;;;;;;;12.50;9.43;;;21.40;62.80;;;;;;5054653;28;20428;-78
2022/05/09 10:11:10;;;;;;;11.23;9.03;;;21.40;62.60;;;;;;5053510;28;20483;-79
2022/05/09 10:13:42;;;;;;;15.13;9.80;;;21.40;61.60;;;;;;5058684;28;20970;-77
2022/05/09 10:16:23;;;;;;;11.80;9.10;;;21.50;61.50;;;;;;5058209;28;20421;-76
2022/05/09 10:18:50;;;;;;;13.03;9.07;;;21.40;61.30;;;;;;5053271;28;20430;-77
2022/05/09 10:24:47;;;;;;;16.10;11.70;;;21.90;60.10;;;;;;5050795;28;20425;-76
2022/05/09 10:27:22;;;;;;;13.33;8.43;;;22.10;59.70;;;;;;5049501;28;20434;-76
2022/05/09 10:29:51;;;;;;;11.50;8.43;;;22.20;58.00;;;;;;5053960;28;20924;-77
2022/05/09 10:32:39;;;;;;;13.03;9.50;;;22.30;57.60;;;;;;5053918;28;20432;-76
2022/05/09 10:35:25;;;;;;;11.43;8.93;;;22.20;57.20;;;;;;5058993;28;20421;-77
2022/05/09 10:38:05;;;;;;;12.50;8.63;;;22.30;57.40;;;;;;5053254;28;20479;-77
2022/05/09 10:40:35;;;;;;;12.47;8.23;;;22.50;56.60;;;;;;5053659;28;20530;-77
2022/05/09 10:43:05;;;;;;;13.70;9.90;;;22.50;56.40;;;;;;5053933;28;20502;-77
2022/05/09 10:45:38;;;;;;;11.13;9.30;;;22.60;56.50;;;;;;5054361;28;20428;-78
2022/05/09 10:48:06;;;;;;;11.37;9.40;;;22.60;56.40;;;;;;5053734;28;20849;-77
2022/05/09 10:50:41;;;;;;;10.40;8.63;;;22.50;54.50;;;;;;5053649;28;20589;-77
2022/05/09 10:53:19;;;;;;;10.17;8.10;;;22.80;54.80;;;;;;5046921;28;20459;-76
2022/05/09 10:56:03;;;;;;;11.80;9.07;;;22.90;54.00;;;;;;5054093;28;20422;-77
2022/05/09 10:58:34;;;;;;;21.70;8.97;;;23.00;53.80;;;;;;5055926;28;21001;-77
2022/05/09 11:01:11;;;;;;;12.87;7.70;;;23.30;53.60;;;;;;5056039;28;20476;-78
2022/05/09 11:03:39;;;;;;;10.40;8.50;;;23.80;52.60;;;;;;5055473;28;20410;-74
2022/05/09 11:06:26;;;;;;;9.70;7.20;;;24.20;50.90;;;;;;5055992;28;20851;-77
2022/05/09 11:08:58;;;;;;;11.97;9.40;;;24.10;49.90;;;;;;5056613;28;20896;-76
2022/05/09 11:12:00;;;;;;;13.63;7.93;;;23.90;51.00;;;;;;5056646;28;20834;-76
2022/05/09 11:15:04;;;;;;;10.30;8.40;;;23.80;50.60;;;;;;5066087;28;20423;-76
2022/05/09 11:17:31;;;;;;;14.90;9.83;;;23.80;53.30;;;;;;5055180;28;20424;-77
2022/05/09 11:20:05;;;;;;;9.60;8.63;;;23.80;54.40;;;;;;5059370;28;20492;-77
2022/05/09 11:22:56;;;;;;;11.73;8.37;;;23.40;54.90;;;;;;5045839;28;20407;-76
2022/05/09 11:25:28;;;;;;;11.17;7.57;;;23.30;52.60;;;;;;5053830;28;20420;-77
2022/05/09 11:28:12;;;;;;;10.43;8.13;;;23.70;50.90;;;;;;5053205;28;20415;-77
2022/05/09 11:30:43;;;;;;;12.63;7.70;;;24.00;51.00;;;;;;5050834;28;20870;-78
2022/05/09 11:33:35;;;;;;;9.43;8.27;;;24.60;49.40;;;;;;5053351;28;20422;-76
2022/05/09 11:36:25;;;;;;;10.83;7.43;;;24.80;48.60;;;;;;5045530;28;20418;-78
2022/05/09 11:39:07;;;;;;;10.00;8.00;;;24.80;48.90;;;;;;5052110;28;20815;-77
2022/05/09 11:41:44;;;;;;;9.30;7.77;;;24.70;48.50;;;;;;5052881;28;20918;-78
2022/05/09 11:44:12;;;;;;;11.90;8.33;;;24.50;49.30;;;;;;5053212;28;20431;-76
2022/05/09 11:46:52;;;;;;;10.60;7.80;;;24.40;49.30;;;;;;5052542;28;20414;-76
2022/05/09 11:49:45;;;;;;;10.07;8.43;;;24.30;49.90;;;;;;5052791;28;20420;-75
2022/05/09 11:52:26;;;;;;;10.40;8.30;;;24.10;50.30;;;;;;5052745;28;20440;-77
2022/05/09 11:54:54;;;;;;;9.03;7.30;;;24.10;50.30;;;;;;5052865;28;20812;-75
2022/05/09 11:57:48;;;;;;;9.60;7.60;;;24.10;50.30;;;;;;5052699;28;20787;-77
2022/05/09 12:00:26;;;;;;;8.63;7.20;;;24.30;50.10;;;;;;5051482;28;20484;-78
2022/05/09 12:02:57;;;;;;;9.13;6.77;;;24.60;49.10;;;;;;5051740;28;20815;-76
2022/05/09 12:05:35;;;;;;;11.67;7.97;;;25.00;48.70;;;;;;5047422;28;20779;-77
2022/05/09 12:08:20;;;;;;;10.13;7.83;;;25.20;47.70;;;;;;5053023;28;20420;-76
2022/05/09 12:11:10;;;;;;;10.20;7.50;;;25.30;47.00;;;;;;5053106;28;20437;-76
2022/05/09 12:13:49;;;;;;;8.10;7.00;;;25.60;45.70;;;;;;5051890;28;21000;-75
2022/05/09 12:16:35;;;;;;;10.80;7.77;;;26.10;45.30;;;;;;5053248;28;20415;-76
2022/05/09 12:19:11;;;;;;;13.10;7.23;;;26.10;43.80;;;;;;5041481;28;20424;-76
2022/05/09 12:21:37;;;;;;;12.10;7.67;;;25.70;44.60;;;;;;5053276;28;20529;-76
2022/05/09 12:24:11;;;;;;;8.80;7.13;;;25.30;46.20;;;;;;5055756;28;20416;-74
2022/05/09 12:26:39;;;;;;;10.30;7.37;;;25.30;46.70;;;;;;5055860;28;20422;-76
2022/05/09 12:29:07;;;;;;;9.57;7.60;;;25.20;46.50;;;;;;5056351;28;20414;-76
2022/05/09 12:31:53;;;;;;;9.63;8.00;;;25.40;46.60;;;;;;5054294;28;20535;-77
2022/05/09 12:34:25;;;;;;;8.07;7.50;;;25.70;44.60;;;;;;5052725;28;20413;-76
2022/05/09 12:36:51;;;;;;;11.50;8.10;;;25.30;45.00;;;;;;5055877;28;20417;-77
2022/05/09 12:39:25;;;;;;;9.97;7.63;;;25.00;46.20;;;;;;5053487;28;20435;-75
2022/05/09 12:41:58;;;;;;;8.70;7.80;;;25.10;46.30;;;;;;5052117;28;20538;-77
2022/05/09 12:44:44;;;;;;;9.47;7.83;;;25.50;45.90;;;;;;5051185;28;20425;-76
2022/05/09 12:47:16;;;;;;;11.07;7.00;;;26.10;43.40;;;;;;5045894;28;20421;-75
2022/05/09 12:50:05;;;;;;;9.83;7.50;;;26.50;43.40;;;;;;5050376;28;20804;-76
2022/05/09 12:52:48;;;;;;;9.63;6.90;;;27.00;41.90;;;;;;5050401;28;20940;-76
2022/05/09 12:57:59;;;;;;;10.60;6.80;;;27.60;40.60;;;;;;5056895;28;20486;-77
2022/05/09 13:00:28;;;;;;;8.03;6.97;;;27.30;41.00;;;;;;5055525;28;20479;-76
2022/05/09 13:02:54;;;;;;;13.20;7.60;;;27.30;41.90;;;;;;5053421;28;20425;-76